createdAt,value
2019-01-30T00:00:39.308Z,22.70
2019-01-30T00:03:10.051Z,16.07
2019-01-30T00:05:40.818Z,19.07
2019-01-30T00:08:11.505Z,18.73
2019-01-30T00:10:42.368Z,22.47
2019-01-30T00:13:13.089Z,19.87
2019-01-30T00:15:44.057Z,21.37
2019-01-30T00:18:14.749Z,24.10
2019-01-30T00:20:45.543Z,18.90
2019-01-30T00:23:16.433Z,20.53
2019-01-30T00:25:47.303Z,20.17
2019-01-30T00:28:18.105Z,20.70
2019-01-30T00:30:48.895Z,20.30
2019-01-30T00:33:19.696Z,16.40
2019-01-30T00:35:51.523Z,20.90
2019-01-30T00:38:22.321Z,21.60
2019-01-30T00:40:53.052Z,21.60
2019-01-30T00:43:23.989Z,17.00
2019-01-30T00:45:54.673Z,23.27
2019-01-30T00:48:25.308Z,20.33
2019-01-30T00:50:56.062Z,18.47
2019-01-30T00:53:26.866Z,23.13
2019-01-30T00:55:57.529Z,16.53
2019-01-30T00:58:28.250Z,20.40
2019-01-30T01:01:00.960Z,18.97
2019-01-30T01:03:32.720Z,24.77
2019-01-30T01:06:03.515Z,23.07
2019-01-30T01:08:34.384Z,26.30
2019-01-30T01:11:05.426Z,22.20
2019-01-30T01:13:36.145Z,23.87
2019-01-30T01:16:06.922Z,19.67
2019-01-30T01:18:37.627Z,27.83
2019-01-30T01:21:08.454Z,26.80
2019-01-30T01:23:39.327Z,25.90
2019-01-30T01:26:10.077Z,29.83
2019-01-30T01:28:40.823Z,22.87
2019-01-30T01:31:11.596Z,23.97
2019-01-30T01:33:42.421Z,23.37
2019-01-30T01:36:13.246Z,29.60
2019-01-30T01:38:44.046Z,26.17
2019-01-30T01:41:14.821Z,23.30
2019-01-30T01:43:45.693Z,31.00
2019-01-30T01:46:16.927Z,29.10
2019-01-30T01:48:47.749Z,24.00
2019-01-30T02:10:24.377Z,21.37
2019-01-30T02:12:55.745Z,21.13
2019-01-30T02:15:26.475Z,24.03
2019-01-30T02:17:57.326Z,23.53
2019-01-30T02:20:30.285Z,26.40
2019-01-30T02:23:01.065Z,25.03
2019-01-30T02:25:32.762Z,22.67
2019-01-30T02:28:03.670Z,25.07
2019-01-30T02:30:34.882Z,25.63
2019-01-30T02:33:06.107Z,25.80
2019-01-30T02:35:37.844Z,33.10
2019-01-30T02:38:08.771Z,26.93
2019-01-30T02:40:39.606Z,31.00
2019-01-30T02:43:10.357Z,28.37
2019-01-30T02:45:41.079Z,32.50
2019-01-30T02:48:12.058Z,24.57
2019-01-30T02:50:42.867Z,29.37
2019-01-30T02:53:13.613Z,29.87
2019-01-30T02:55:45.947Z,28.03
2019-01-30T02:58:17.466Z,26.80
2019-01-30T03:00:58.563Z,27.50
2019-01-30T03:03:20.729Z,28.60
2019-01-30T03:05:51.531Z,23.50
2019-01-30T03:08:22.261Z,28.37
2019-01-30T03:10:53.553Z,31.20
2019-01-30T03:13:25.035Z,27.93
2019-01-30T03:15:56.217Z,25.30
2019-01-30T03:18:27.203Z,29.70
2019-01-30T03:20:58.876Z,33.97
2019-01-30T03:23:32.544Z,27.60
2019-01-30T03:26:03.410Z,27.83
2019-01-30T03:28:35.221Z,27.43
2019-01-30T03:31:16.969Z,26.77
2019-01-30T03:33:38.491Z,29.07
2019-01-30T03:36:09.241Z,25.10
2019-01-30T03:38:40.077Z,27.80
2019-01-30T03:41:10.993Z,28.87
2019-01-30T03:43:41.783Z,34.77
2019-01-30T03:46:12.565Z,30.37
2019-01-30T03:48:43.382Z,29.33
2019-01-30T03:51:14.082Z,30.47
2019-01-30T03:53:45.485Z,29.40
2019-01-30T03:56:17.247Z,29.73
2019-01-30T03:58:47.994Z,25.83
2019-01-30T04:01:26.562Z,27.83
2019-01-30T04:03:51.247Z,30.73
2019-01-30T04:06:22.003Z,31.37
2019-01-30T04:08:52.806Z,29.50
2019-01-30T04:11:23.530Z,27.37
2019-01-30T04:13:54.182Z,27.33
2019-01-30T04:16:24.829Z,28.63
2019-01-30T04:18:55.601Z,30.80
2019-01-30T04:21:26.384Z,26.50
2019-01-30T04:23:57.089Z,32.00
2019-01-30T04:26:27.853Z,31.73
2019-01-30T04:28:58.582Z,36.10
2019-01-30T04:31:37.920Z,33.40
2019-01-30T04:34:01.781Z,31.43
2019-01-30T04:36:34.098Z,32.30
2019-01-30T04:39:07.322Z,28.93
2019-01-30T04:41:38.119Z,32.23
2019-01-30T04:44:09.007Z,28.47
2019-01-30T04:46:39.662Z,27.73
2019-01-30T04:49:10.462Z,26.80
2019-01-30T04:51:41.084Z,30.67
2019-01-30T04:54:11.842Z,30.53
2019-01-30T04:56:42.536Z,31.17
2019-01-30T04:59:13.261Z,32.30
2019-01-30T05:01:49.756Z,32.07
2019-01-30T05:04:16.413Z,28.90
2019-01-30T05:06:47.142Z,30.63
2019-01-30T05:09:17.906Z,32.93
2019-01-30T05:11:48.681Z,29.37
2019-01-30T05:14:19.546Z,29.73
2019-01-30T05:16:50.249Z,31.80
2019-01-30T05:19:20.991Z,25.63
2019-01-30T05:21:51.830Z,29.73
2019-01-30T05:24:23.343Z,34.80
2019-01-30T05:26:54.100Z,34.13
2019-01-30T05:29:24.849Z,31.27
2019-01-30T05:32:01.225Z,32.07
2019-01-30T05:34:27.988Z,30.73
2019-01-30T05:36:58.731Z,32.03
2019-01-30T05:39:29.445Z,26.10
2019-01-30T05:42:00.152Z,36.67
2019-01-30T05:44:30.902Z,30.17
2019-01-30T05:47:01.651Z,31.37
2019-01-30T05:49:33.350Z,29.77
2019-01-30T05:52:04.647Z,29.97
2019-01-30T05:54:35.862Z,27.63
2019-01-30T05:57:06.695Z,32.73
2019-01-30T05:59:37.567Z,30.13
2019-01-30T06:02:12.032Z,34.70
2019-01-30T06:04:40.707Z,28.57
2019-01-30T06:07:11.604Z,31.57
2019-01-30T06:09:42.389Z,33.60
2019-01-30T06:12:13.136Z,27.83
2019-01-30T06:14:43.914Z,33.63
2019-01-30T06:17:14.715Z,30.37
2019-01-30T06:19:45.619Z,36.17
2019-01-30T06:22:19.428Z,34.40
2019-01-30T06:24:50.417Z,30.30
2019-01-30T06:27:21.230Z,32.13
2019-01-30T06:29:53.554Z,32.97
2019-01-30T06:32:24.339Z,33.27
2019-01-30T06:34:56.766Z,30.43
2019-01-30T06:37:27.563Z,32.63
2019-01-30T06:39:59.265Z,27.10
2019-01-30T06:42:30.013Z,29.50
2019-01-30T06:45:00.946Z,28.10
2019-01-30T06:47:31.651Z,31.90
2019-01-30T06:50:03.506Z,34.97
2019-01-30T06:52:34.270Z,32.70
2019-01-30T06:55:06.205Z,30.83
2019-01-30T06:57:37.030Z,36.00
2019-01-30T07:00:14.923Z,36.00
2019-01-30T07:02:47.491Z,34.00
2019-01-30T07:05:18.270Z,33.67
2019-01-30T07:07:49.010Z,37.57
2019-01-30T07:10:21.638Z,34.40
2019-01-30T07:12:52.911Z,33.93
2019-01-30T07:15:24.493Z,34.83
2019-01-30T07:17:56.333Z,31.20
2019-01-30T07:20:28.321Z,35.83
2019-01-30T07:22:59.187Z,36.90
2019-01-30T07:25:29.947Z,31.77
2019-01-30T07:28:00.706Z,31.87
2019-01-30T07:30:33.774Z,35.27
2019-01-30T07:33:04.809Z,36.17
2019-01-30T07:35:38.139Z,33.67
2019-01-30T07:38:08.914Z,28.20
2019-01-30T07:40:39.728Z,41.00
2019-01-30T07:43:10.569Z,33.63
2019-01-30T07:45:41.533Z,32.20
2019-01-30T07:48:12.300Z,31.70
2019-01-30T07:50:43.055Z,34.27
2019-01-30T07:53:13.774Z,33.80
2019-01-30T07:55:44.480Z,30.80
2019-01-30T07:58:15.249Z,31.20
2019-01-30T08:00:46.033Z,31.37
2019-01-30T08:03:16.858Z,34.37
2019-01-30T08:05:47.873Z,34.17
2019-01-30T08:08:18.714Z,35.33
2019-01-30T08:10:49.652Z,32.40
2019-01-30T08:13:20.514Z,33.47
2019-01-30T08:15:51.256Z,35.83
2019-01-30T08:18:22.186Z,35.13
2019-01-30T08:20:52.914Z,35.97
2019-01-30T08:23:23.850Z,31.33
2019-01-30T08:25:54.725Z,32.03
2019-01-30T08:28:25.806Z,33.40
2019-01-30T08:30:56.904Z,31.30
2019-01-30T08:33:27.692Z,30.40
2019-01-30T08:35:59.193Z,32.70
2019-01-30T08:38:30.010Z,33.67
2019-01-30T08:41:01.071Z,36.23
2019-01-30T08:43:32.149Z,35.67
2019-01-30T08:46:03.513Z,31.07
2019-01-30T08:48:34.829Z,30.77
2019-01-30T08:51:05.986Z,31.23
2019-01-30T08:53:36.944Z,31.53
2019-01-30T08:56:07.967Z,30.87
2019-01-30T08:58:38.760Z,31.77
2019-01-30T09:01:09.813Z,31.77
2019-01-30T09:03:40.781Z,28.13
2019-01-30T09:06:13.110Z,28.10
2019-01-30T09:08:44.218Z,33.07
2019-01-30T09:11:15.412Z,34.70
2019-01-30T09:13:46.241Z,26.47
2019-01-30T09:16:17.224Z,31.83
2019-01-30T09:18:48.436Z,30.13
2019-01-30T09:21:19.570Z,29.73
2019-01-30T09:23:52.341Z,24.70
2019-01-30T09:26:23.482Z,30.03
2019-01-30T09:28:54.320Z,26.37
2019-01-30T09:31:27.775Z,27.37
2019-01-30T09:33:58.737Z,28.77
2019-01-30T09:36:29.754Z,27.47
2019-01-30T09:39:00.845Z,29.87
2019-01-30T09:41:31.743Z,27.47
2019-01-30T09:44:02.508Z,26.97
2019-01-30T09:46:33.340Z,26.20
2019-01-30T09:49:04.127Z,29.90
2019-01-30T09:51:35.069Z,28.53
2019-01-30T09:54:05.859Z,24.03
2019-01-30T09:56:36.593Z,27.83
2019-01-30T09:59:07.747Z,24.37
2019-01-30T10:01:38.546Z,28.57
2019-01-30T10:04:09.383Z,24.17
2019-01-30T10:06:40.208Z,22.47
2019-01-30T10:09:11.443Z,27.03
2019-01-30T10:11:42.254Z,31.17
2019-01-30T10:14:13.134Z,25.63
2019-01-30T10:16:44.031Z,26.03
2019-01-30T10:19:14.850Z,28.63
2019-01-30T10:21:45.918Z,25.30
2019-01-30T10:24:18.233Z,24.73
2019-01-30T10:26:49.023Z,26.47
2019-01-30T10:29:19.789Z,26.37
2019-01-30T10:31:50.570Z,24.73
2019-01-30T10:34:21.321Z,23.53
2019-01-30T10:36:52.178Z,26.20
2019-01-30T10:39:22.874Z,26.30
2019-01-30T10:41:53.568Z,22.90
2019-01-30T10:44:24.271Z,24.63
2019-01-30T10:46:55.147Z,24.00
2019-01-30T10:49:25.995Z,20.50
2019-01-30T10:51:56.834Z,22.50
2019-01-30T10:54:27.610Z,25.63
2019-01-30T10:56:58.853Z,27.30
2019-01-30T10:59:31.167Z,21.77
2019-01-30T11:02:02.000Z,27.77
2019-01-30T11:04:32.764Z,27.57
2019-01-30T11:07:03.584Z,25.77
2019-01-30T11:09:34.386Z,26.77
2019-01-30T11:12:05.359Z,29.87
2019-01-30T11:14:36.402Z,26.23
2019-01-30T11:17:08.724Z,26.03
2019-01-30T11:19:39.606Z,27.23
2019-01-30T11:22:10.635Z,25.83
2019-01-30T11:24:41.461Z,27.10
2019-01-30T11:27:12.211Z,30.00
2019-01-30T11:29:43.011Z,30.27
2019-01-30T11:32:15.694Z,26.30
2019-01-30T11:34:46.465Z,31.03
2019-01-30T11:37:17.262Z,25.80
2019-01-30T11:39:48.116Z,25.27
2019-01-30T11:42:20.491Z,27.73
2019-01-30T11:44:51.266Z,25.73
2019-01-30T11:47:22.106Z,27.63
2019-01-30T11:49:53.031Z,25.53
2019-01-30T11:52:23.807Z,26.33
2019-01-30T11:54:54.469Z,28.60
2019-01-30T11:57:26.094Z,27.63
2019-01-30T11:59:57.922Z,28.80
2019-01-30T12:02:28.762Z,26.07
2019-01-30T12:04:59.421Z,33.87
2019-01-30T12:07:30.191Z,27.50
2019-01-30T12:10:01.050Z,27.87
2019-01-30T12:12:32.046Z,26.23
2019-01-30T12:15:02.823Z,28.57
2019-01-30T12:17:33.792Z,26.47
2019-01-30T12:20:05.765Z,29.60
2019-01-30T12:22:37.493Z,30.17
2019-01-30T12:25:10.911Z,31.87
2019-01-30T12:27:41.846Z,25.00
2019-01-30T12:30:18.046Z,29.47
2019-01-30T12:32:48.975Z,30.13
2019-01-30T12:35:19.951Z,37.07
2019-01-30T12:37:50.921Z,30.87
2019-01-30T12:40:22.459Z,33.20
2019-01-30T12:42:53.572Z,31.47
2019-01-30T12:45:26.929Z,31.93
2019-01-30T12:47:58.468Z,30.10
2019-01-30T12:50:30.151Z,38.67
2019-01-30T12:53:01.593Z,29.63
2019-01-30T12:55:32.754Z,35.30
2019-01-30T12:58:03.482Z,29.90
2019-01-30T13:00:40.355Z,34.37
2019-01-30T13:03:11.291Z,34.57
2019-01-30T13:05:42.236Z,33.10
2019-01-30T13:08:13.038Z,35.83
2019-01-30T13:10:43.879Z,34.53
2019-01-30T13:13:14.856Z,29.07
2019-01-30T13:15:45.689Z,34.60
2019-01-30T13:18:18.625Z,30.33
2019-01-30T13:20:49.045Z,34.70
2019-01-30T13:23:19.969Z,31.27
2019-01-30T13:25:50.773Z,37.60
2019-01-30T13:28:21.501Z,34.07
2019-01-30T13:30:52.318Z,37.37
2019-01-30T13:33:23.046Z,34.07
2019-01-30T13:35:55.630Z,30.53
2019-01-30T13:38:26.907Z,37.50
2019-01-30T13:40:57.690Z,33.90
2019-01-30T13:43:28.461Z,37.57
2019-01-30T13:46:05.218Z,38.57
2019-01-30T13:48:32.126Z,31.87
2019-01-30T13:51:03.045Z,40.10
2019-01-30T13:53:37.197Z,33.63
2019-01-30T13:56:07.984Z,36.80
2019-01-30T13:58:38.931Z,37.27
2019-01-30T14:01:17.270Z,35.77
2019-01-30T14:03:42.516Z,39.27
2019-01-30T14:06:13.640Z,38.67
2019-01-30T14:08:44.768Z,34.40
2019-01-30T14:11:16.029Z,36.33
2019-01-30T14:13:48.611Z,35.10
2019-01-30T14:16:19.458Z,38.13
2019-01-30T14:18:50.815Z,34.10
2019-01-30T14:21:21.851Z,37.93
2019-01-30T14:23:52.806Z,40.60
2019-01-30T14:26:23.757Z,40.60
2019-01-30T14:28:57.672Z,40.17
2019-01-30T14:31:28.515Z,42.73
2019-01-30T14:33:59.670Z,46.10
2019-01-30T14:36:30.777Z,43.23
2019-01-30T14:39:01.654Z,52.10
2019-01-30T14:41:33.851Z,42.13
2019-01-30T14:44:04.937Z,45.57
2019-01-30T14:46:35.751Z,44.50
2019-01-30T14:49:08.060Z,45.27
2019-01-30T14:51:38.867Z,44.30
2019-01-30T14:54:09.955Z,41.20
2019-01-30T14:56:40.767Z,42.93
2019-01-30T14:59:11.811Z,40.80
2019-01-30T15:01:42.609Z,40.10
2019-01-30T15:04:14.030Z,43.27
2019-01-30T15:06:44.853Z,44.37
2019-01-30T15:09:15.749Z,42.33
2019-01-30T15:11:46.674Z,50.60
2019-01-30T15:14:17.747Z,49.53
2019-01-30T15:16:48.660Z,53.37
2019-01-30T15:19:19.543Z,56.03
2019-01-30T15:21:50.508Z,54.23
2019-01-30T15:24:21.541Z,62.17
2019-01-30T15:26:53.184Z,60.57
2019-01-30T15:29:24.266Z,59.63
2019-01-30T15:31:56.587Z,61.70
2019-01-30T15:34:27.461Z,60.10
2019-01-30T15:36:58.992Z,55.33
2019-01-30T15:39:29.850Z,60.43
2019-01-30T15:42:00.766Z,60.90
2019-01-30T15:44:32.584Z,59.43
2019-01-30T15:47:03.618Z,65.17
2019-01-30T15:49:37.353Z,58.07
2019-01-30T15:52:08.136Z,61.33
2019-01-30T15:54:39.042Z,56.67
2019-01-30T15:57:09.879Z,63.73
2019-01-30T15:59:40.658Z,67.67
2019-01-30T16:02:11.492Z,69.30
2019-01-30T16:04:42.632Z,71.17
2019-01-30T16:07:13.650Z,64.33
2019-01-30T16:09:44.853Z,66.37
2019-01-30T16:12:15.646Z,60.03
2019-01-30T16:14:46.446Z,69.73
2019-01-30T16:17:17.245Z,76.53
2019-01-30T16:19:49.380Z,70.93
2019-01-30T16:22:21.357Z,71.47
2019-01-30T16:24:52.985Z,64.53
2019-01-30T16:27:24.786Z,73.60
2019-01-30T16:29:55.636Z,70.37
2019-01-30T16:32:26.426Z,72.10
2019-01-30T16:35:00.682Z,72.87
2019-01-30T16:37:33.520Z,72.37
2019-01-30T16:40:05.442Z,87.67
2019-01-30T16:42:54.363Z,81.43
2019-01-30T16:45:38.541Z,83.43
2019-01-30T16:48:09.517Z,87.10
2019-01-30T16:50:40.256Z,88.03
2019-01-30T16:53:11.030Z,82.27
2019-01-30T16:55:41.790Z,93.70
2019-01-30T16:58:12.674Z,90.27
2019-01-30T17:00:43.405Z,95.60
2019-01-30T17:03:14.123Z,92.10
2019-01-30T17:05:45.241Z,82.93
2019-01-30T17:08:16.026Z,104.67
2019-01-30T17:10:46.768Z,99.50
2019-01-30T17:13:17.506Z,93.60
2019-01-30T17:15:48.211Z,99.00
2019-01-30T17:18:19.300Z,92.10
2019-01-30T17:20:51.143Z,107.97
2019-01-30T17:23:22.112Z,92.87
2019-01-30T17:25:53.235Z,106.03
2019-01-30T17:28:24.812Z,87.40
2019-01-30T17:31:00.147Z,93.80
2019-01-30T17:33:30.865Z,84.90
2019-01-30T17:36:01.621Z,90.00
2019-01-30T17:38:32.476Z,91.80
2019-01-30T17:41:03.321Z,88.67
2019-01-30T17:43:34.070Z,78.57
2019-01-30T17:46:04.932Z,91.23
2019-01-30T17:48:35.897Z,82.97
2019-01-30T17:51:08.345Z,81.17
2019-01-30T17:53:40.006Z,89.00
2019-01-30T17:56:10.937Z,102.37
2019-01-30T17:58:43.264Z,97.03
2019-01-30T18:01:14.099Z,88.93
2019-01-30T18:03:44.906Z,114.20
2019-01-30T18:06:15.790Z,116.40
2019-01-30T18:08:48.189Z,119.93
2019-01-30T18:11:19.009Z,101.23
2019-01-30T18:13:49.738Z,100.80
2019-01-30T18:16:20.559Z,114.07
2019-01-30T18:18:51.336Z,114.90
2019-01-30T18:21:22.117Z,120.97
2019-01-30T18:23:53.034Z,118.47
2019-01-30T18:26:23.766Z,110.87
2019-01-30T18:28:54.582Z,123.67
2019-01-30T18:31:25.420Z,126.37
2019-01-30T18:33:56.257Z,133.93
2019-01-30T18:36:27.074Z,120.70
2019-01-30T18:38:57.891Z,139.50
2019-01-30T18:41:28.713Z,136.83
2019-01-30T18:43:59.823Z,135.33
2019-01-30T18:46:30.581Z,140.00
2019-01-30T18:49:01.380Z,128.10
2019-01-30T18:51:32.215Z,131.67
2019-01-30T18:54:03.029Z,120.03
2019-01-30T18:56:36.493Z,129.27
2019-01-30T18:59:06.500Z,133.33
2019-01-30T19:01:37.327Z,130.73
2019-01-30T19:04:08.231Z,140.37
2019-01-30T19:06:39.013Z,129.60
2019-01-30T19:09:11.308Z,116.20
2019-01-30T19:11:43.606Z,106.27
2019-01-30T19:14:14.410Z,114.50
2019-01-30T19:16:45.231Z,114.97
2019-01-30T19:19:16.031Z,98.63
2019-01-30T19:21:46.742Z,102.00
2019-01-30T19:24:19.848Z,87.77
2019-01-30T19:26:50.778Z,84.73
2019-01-30T19:29:21.595Z,88.13
2019-01-30T19:31:52.501Z,82.03
2019-01-30T19:34:23.715Z,76.23
2019-01-30T19:37:03.250Z,86.37
2019-01-30T19:39:27.106Z,57.37
2019-01-30T19:41:58.079Z,72.53
2019-01-30T19:44:29.826Z,72.77
2019-01-30T19:47:00.658Z,65.30
2019-01-30T19:49:31.544Z,80.43
2019-01-30T19:52:02.535Z,82.90
2019-01-30T19:54:34.369Z,79.63
2019-01-30T19:57:05.156Z,84.17
2019-01-30T19:59:36.015Z,87.63
2019-01-30T20:02:07.304Z,79.67
2019-01-30T20:04:38.679Z,82.03
2019-01-30T20:07:14.965Z,64.07
2019-01-30T20:09:44.774Z,82.13
2019-01-30T20:12:14.677Z,81.50
2019-01-30T20:14:47.111Z,87.30
2019-01-30T20:17:17.917Z,82.57
2019-01-30T20:19:48.839Z,73.83
2019-01-30T20:22:19.573Z,83.27
2019-01-30T20:24:52.193Z,79.97
2019-01-30T20:27:23.125Z,73.67
2019-01-30T20:29:53.938Z,63.97
2019-01-30T20:32:24.736Z,61.33
2019-01-30T20:34:56.459Z,54.70
2019-01-30T20:37:28.758Z,63.17
2019-01-30T20:39:59.654Z,58.27
2019-01-30T20:42:30.579Z,66.07
2019-01-30T20:45:01.350Z,49.70
2019-01-30T20:47:32.049Z,51.93
2019-01-30T20:50:03.074Z,61.17
2019-01-30T20:52:33.871Z,40.83
2019-01-30T20:55:05.407Z,33.20
2019-01-30T20:57:36.233Z,47.03
2019-01-30T21:00:10.499Z,33.83
2019-01-30T21:02:42.027Z,35.87
2019-01-30T21:05:12.886Z,38.37
2019-01-30T21:07:43.687Z,37.10
2019-01-30T21:10:17.374Z,35.93
2019-01-30T21:12:49.934Z,38.07
2019-01-30T21:15:20.716Z,29.93
2019-01-30T21:17:51.653Z,32.07
2019-01-30T21:20:22.443Z,38.10
2019-01-30T21:22:53.166Z,36.50
2019-01-30T21:25:24.642Z,34.27
2019-01-30T21:27:55.404Z,20.80
2019-01-30T21:30:28.425Z,32.33
2019-01-30T21:33:00.846Z,35.13
2019-01-30T21:35:34.131Z,38.07
2019-01-30T21:38:05.508Z,39.70
2019-01-30T21:40:36.455Z,35.00
2019-01-30T21:43:07.353Z,29.27
2019-01-30T21:45:38.188Z,30.33
2019-01-30T21:48:08.918Z,29.27
2019-01-30T21:50:39.675Z,31.23
2019-01-30T21:53:11.288Z,33.27
2019-01-30T21:55:42.069Z,30.03
2019-01-30T21:58:14.349Z,28.70
2019-01-30T22:00:45.070Z,36.00
2019-01-30T22:03:15.849Z,33.80
2019-01-30T22:05:46.648Z,31.50
2019-01-30T22:08:17.456Z,29.73
2019-01-30T22:10:48.289Z,25.63
2019-01-30T22:13:19.104Z,19.57
2019-01-30T22:15:49.805Z,24.83
2019-01-30T22:18:20.606Z,28.53
2019-01-30T22:20:51.422Z,22.50
2019-01-30T22:23:22.188Z,20.63
2019-01-30T22:25:52.978Z,29.50
2019-01-30T22:28:24.759Z,21.00
2019-01-30T22:30:55.570Z,21.63
2019-01-30T22:33:26.345Z,19.43
2019-01-30T22:35:57.130Z,16.60
2019-01-30T22:38:28.011Z,15.03
2019-01-30T22:40:58.783Z,14.37
2019-01-30T22:43:29.644Z,18.23
2019-01-30T22:46:00.527Z,11.93
2019-01-30T22:48:31.266Z,12.83
2019-01-30T22:51:02.016Z,13.17
2019-01-30T22:53:32.734Z,13.10
2019-01-30T22:56:03.475Z,20.60
2019-01-30T22:58:35.849Z,21.77
2019-01-30T23:01:39.546Z,18.90
2019-01-30T23:04:38.607Z,15.60
2019-01-30T23:07:36.448Z,17.37
2019-01-30T23:10:53.806Z,19.37
2019-01-30T23:13:56.675Z,23.27
2019-01-30T23:17:05.304Z,22.33
2019-01-30T23:19:55.826Z,23.57
2019-01-30T23:23:10.692Z,26.00
2019-01-30T23:26:14.364Z,20.43
2019-01-30T23:29:34.299Z,18.40
2019-01-30T23:32:44.525Z,23.57
2019-01-30T23:36:00.819Z,28.00
2019-01-30T23:39:20.369Z,27.57
2019-01-30T23:42:16.194Z,32.03
2019-01-30T23:45:01.950Z,22.77
2019-01-30T23:48:08.181Z,21.23
2019-01-30T23:50:53.278Z,42.60
2019-01-30T23:53:45.651Z,29.33
2019-01-30T23:56:33.173Z,36.67
2019-01-30T23:59:41.912Z,28.73
